createdAt,value
2018-09-11T00:01:41.977Z,18.00
2018-09-11T00:04:11.575Z,18.00
2018-09-11T00:06:40.644Z,18.00
2018-09-11T00:09:12.070Z,18.00
2018-09-11T00:11:41.828Z,18.00
2018-09-11T00:14:10.937Z,17.90
2018-09-11T00:16:40.076Z,18.00
2018-09-11T00:19:09.160Z,18.00
2018-09-11T00:21:38.204Z,17.90
2018-09-11T00:24:07.400Z,17.90
2018-09-11T00:26:36.594Z,18.00
2018-09-11T00:29:05.660Z,17.90
2018-09-11T00:31:34.888Z,17.90
2018-09-11T00:34:04.086Z,17.90
2018-09-11T00:36:33.332Z,17.90
2018-09-11T00:39:02.349Z,17.90
2018-09-11T00:41:31.392Z,17.90
2018-09-11T00:44:00.546Z,17.80
2018-09-11T00:46:29.697Z,17.80
2018-09-11T00:48:58.925Z,17.80
2018-09-11T00:51:28.277Z,17.80
2018-09-11T00:53:57.320Z,17.80
2018-09-11T00:56:27.251Z,17.80
2018-09-11T00:58:57.324Z,17.70
2018-09-11T01:01:26.371Z,17.70
2018-09-11T01:03:55.421Z,17.70
2018-09-11T01:06:24.556Z,17.70
2018-09-11T01:08:53.688Z,17.70
2018-09-11T01:11:22.787Z,17.70
2018-09-11T01:13:51.896Z,17.60
2018-09-11T01:16:20.987Z,17.60
2018-09-11T01:18:50.081Z,17.60
2018-09-11T01:21:19.187Z,17.60
2018-09-11T01:23:48.312Z,17.60
2018-09-11T01:26:17.304Z,17.60
2018-09-11T01:28:46.509Z,17.50
2018-09-11T01:31:15.796Z,17.50
2018-09-11T01:33:45.065Z,17.50
2018-09-11T01:36:14.230Z,17.50
2018-09-11T01:38:43.412Z,17.50
2018-09-11T01:41:12.564Z,17.50
2018-09-11T01:43:41.719Z,17.50
2018-09-11T01:46:11.341Z,17.50
2018-09-11T01:48:40.756Z,17.60
2018-09-11T01:51:09.924Z,17.60
2018-09-11T01:53:39.032Z,17.60
2018-09-11T01:56:08.045Z,17.60
2018-09-11T01:58:37.146Z,17.60
2018-09-11T02:01:06.215Z,17.60
2018-09-11T02:03:35.359Z,17.60
2018-09-11T02:06:04.392Z,17.60
2018-09-11T02:08:33.576Z,17.60
2018-09-11T02:11:02.801Z,17.60
2018-09-11T02:13:31.848Z,17.60
2018-09-11T02:16:00.897Z,17.60
2018-09-11T02:18:30.322Z,17.60
2018-09-11T02:20:59.439Z,17.60
2018-09-11T02:23:28.573Z,17.60
2018-09-11T02:25:57.723Z,17.60
2018-09-11T02:28:26.793Z,17.60
2018-09-11T02:30:55.891Z,17.60
2018-09-11T02:33:25.037Z,17.50
2018-09-11T02:35:54.175Z,17.50
2018-09-11T02:38:23.223Z,17.50
2018-09-11T02:40:52.280Z,17.50
2018-09-11T02:43:21.417Z,17.50
2018-09-11T02:45:50.668Z,17.50
2018-09-11T02:48:19.759Z,17.50
2018-09-11T02:50:48.892Z,17.50
2018-09-11T02:53:17.935Z,17.50
2018-09-11T02:55:46.991Z,17.50
2018-09-11T02:58:16.511Z,17.50
2018-09-11T03:00:45.621Z,17.60
2018-09-11T03:03:14.811Z,17.50
2018-09-11T03:05:44.168Z,17.50
2018-09-11T03:08:13.280Z,17.50
2018-09-11T03:10:42.404Z,17.50
2018-09-11T03:13:11.541Z,17.50
2018-09-11T03:15:40.592Z,17.50
2018-09-11T03:18:09.806Z,17.50
2018-09-11T03:20:38.992Z,17.50
2018-09-11T03:23:08.108Z,17.40
2018-09-11T03:25:37.565Z,17.40
2018-09-11T03:28:06.748Z,17.40
2018-09-11T03:30:35.809Z,17.40
2018-09-11T03:33:04.932Z,17.50
2018-09-11T03:35:34.033Z,17.50
2018-09-11T03:38:03.192Z,17.40
2018-09-11T03:40:32.679Z,17.40
2018-09-11T03:43:02.756Z,17.40
2018-09-11T03:45:31.827Z,17.40
2018-09-11T03:48:01.457Z,17.40
2018-09-11T03:50:30.592Z,17.40
2018-09-11T03:52:59.709Z,17.40
2018-09-11T03:55:28.822Z,17.40
2018-09-11T03:57:57.910Z,17.40
2018-09-11T04:00:26.974Z,17.40
2018-09-11T04:02:57.049Z,17.40
2018-09-11T04:05:26.252Z,17.40
2018-09-11T04:07:55.330Z,17.40
2018-09-11T04:10:24.479Z,17.40
2018-09-11T04:12:53.664Z,17.40
2018-09-11T04:15:22.817Z,17.30
2018-09-11T04:17:52.132Z,17.30
2018-09-11T04:20:21.350Z,17.30
2018-09-11T04:22:50.827Z,17.50
2018-09-11T04:25:20.153Z,17.30
2018-09-11T04:29:09.661Z,17.30
2018-09-11T04:31:38.921Z,17.30
2018-09-11T04:34:08.216Z,17.30
2018-09-11T04:36:37.405Z,17.30
2018-09-11T04:39:08.600Z,17.30
2018-09-11T04:41:37.796Z,17.30
2018-09-11T04:44:06.932Z,17.30
2018-09-11T04:46:36.141Z,17.30
2018-09-11T04:49:05.491Z,17.30
2018-09-11T04:51:34.652Z,17.30
2018-09-11T04:54:03.901Z,17.30
2018-09-11T04:56:33.159Z,17.30
2018-09-11T04:59:02.276Z,17.30
2018-09-11T05:01:31.452Z,17.30
2018-09-11T05:04:00.712Z,17.30
2018-09-11T05:06:30.391Z,17.30
2018-09-11T05:08:59.606Z,17.30
2018-09-11T05:11:28.819Z,17.30
2018-09-11T05:13:58.781Z,17.30
2018-09-11T05:16:27.987Z,17.30
2018-09-11T05:18:57.168Z,17.40
2018-09-11T05:21:27.764Z,17.40
2018-09-11T05:23:56.877Z,17.40
2018-09-11T05:26:26.470Z,17.50
2018-09-11T05:28:55.747Z,17.50
2018-09-11T05:31:24.966Z,17.60
2018-09-11T05:33:54.123Z,17.70
2018-09-11T05:36:23.250Z,17.70
2018-09-11T05:38:52.509Z,17.80
2018-09-11T05:41:21.743Z,17.80
2018-09-11T05:43:50.918Z,17.90
2018-09-11T05:46:20.158Z,17.90
2018-09-11T05:48:49.256Z,17.90
2018-09-11T05:51:18.591Z,18.00
2018-09-11T05:53:47.875Z,18.00
2018-09-11T05:56:17.282Z,18.10
2018-09-11T05:58:46.614Z,18.20
2018-09-11T06:01:15.832Z,18.20
2018-09-11T06:03:45.248Z,18.20
2018-09-11T06:06:14.843Z,18.30
2018-09-11T06:08:44.295Z,18.30
2018-09-11T06:11:14.007Z,18.40
2018-09-11T06:13:43.141Z,18.60
2018-09-11T06:16:12.730Z,18.70
2018-09-11T06:18:42.117Z,18.90
2018-09-11T06:21:13.320Z,19.10
2018-09-11T06:23:44.043Z,19.30
2018-09-11T06:26:15.181Z,19.40
2018-09-11T06:28:52.732Z,19.70
2018-09-11T06:31:23.030Z,19.90
2018-09-11T06:33:52.465Z,20.30
2018-09-11T06:36:21.937Z,20.60
2018-09-11T06:38:51.639Z,21.00
2018-09-11T06:41:21.828Z,21.40
2018-09-11T06:43:53.475Z,21.80
2018-09-11T06:46:23.117Z,22.20
2018-09-11T06:48:53.094Z,22.50
2018-09-11T06:51:23.543Z,22.80
2018-09-11T06:53:53.270Z,23.10
2018-09-11T06:56:22.959Z,23.50
2018-09-11T06:58:53.731Z,23.90
2018-09-11T07:01:23.934Z,24.20
2018-09-11T07:03:53.623Z,24.40
2018-09-11T07:06:25.427Z,24.60
2018-09-11T07:08:55.366Z,24.70
2018-09-11T07:11:25.358Z,24.70
2018-09-11T07:13:57.817Z,24.80
2018-09-11T07:16:28.170Z,24.90
2018-09-11T07:18:58.137Z,24.80
2018-09-11T07:21:29.578Z,24.80
2018-09-11T07:23:59.305Z,24.80
2018-09-11T07:26:28.814Z,24.70
2018-09-11T07:29:00.825Z,24.80
2018-09-11T07:31:33.600Z,24.80
2018-09-11T07:34:04.517Z,24.80
2018-09-11T07:36:34.341Z,24.90
2018-09-11T07:39:03.798Z,24.90
2018-09-11T07:41:34.036Z,24.90
2018-09-11T07:44:03.527Z,25.00
2018-09-11T07:46:35.963Z,25.00
2018-09-11T07:49:07.565Z,25.10
2018-09-11T07:51:37.245Z,25.10
2018-09-11T07:54:09.461Z,25.20
2018-09-11T07:56:39.425Z,25.30
2018-09-11T07:59:09.820Z,25.50
2018-09-11T08:01:39.434Z,25.70
2018-09-11T08:04:15.704Z,25.80
2018-09-11T08:06:46.621Z,26.00
2018-09-11T08:09:18.071Z,26.10
2018-09-11T08:11:49.215Z,26.20
2018-09-11T08:14:19.244Z,26.30
2018-09-11T08:16:49.735Z,26.40
2018-09-11T08:19:20.185Z,26.50
2018-09-11T08:21:49.897Z,26.70
2018-09-11T08:24:21.041Z,26.90
2018-09-11T08:26:51.298Z,27.00
2018-09-11T08:29:23.689Z,27.20
2018-09-11T08:31:55.392Z,27.30
2018-09-11T08:34:25.735Z,27.50
2018-09-11T08:36:57.862Z,27.60
2018-09-11T08:39:27.488Z,27.80
2018-09-11T08:41:57.294Z,27.90
2018-09-11T08:44:26.341Z,28.10
2018-09-11T08:46:56.075Z,28.20
2018-09-11T08:49:27.549Z,28.30
2018-09-11T08:51:58.522Z,28.30
2018-09-11T08:54:29.145Z,28.30
2018-09-11T08:57:00.887Z,28.30
2018-09-11T08:59:30.484Z,28.20
2018-09-11T09:02:00.761Z,28.10
2018-09-11T09:04:31.011Z,28.00
2018-09-11T09:07:01.608Z,28.00
2018-09-11T09:09:31.022Z,28.00
2018-09-11T09:12:00.443Z,28.10
2018-09-11T09:14:30.994Z,28.30
2018-09-11T09:17:00.715Z,28.50
2018-09-11T09:19:30.391Z,28.60
2018-09-11T09:22:02.519Z,28.70
2018-09-11T09:24:32.108Z,28.70
2018-09-11T09:27:01.547Z,28.70
2018-09-11T09:29:31.026Z,28.70
2018-09-11T09:32:01.493Z,28.70
2018-09-11T09:34:30.801Z,28.80
2018-09-11T09:37:00.476Z,28.90
2018-09-11T09:39:30.398Z,28.90
2018-09-11T09:42:01.519Z,28.80
2018-09-11T09:44:34.953Z,28.80
2018-09-11T09:47:04.432Z,28.70
2018-09-11T09:49:35.087Z,28.70
2018-09-11T09:52:06.635Z,28.70
2018-09-11T09:54:37.283Z,28.60
2018-09-11T09:57:06.688Z,28.60
2018-09-11T09:59:36.174Z,28.60
2018-09-11T10:02:12.515Z,28.60
2018-09-11T10:04:44.096Z,28.50
2018-09-11T10:07:18.893Z,28.60
2018-09-11T10:09:51.592Z,28.50
2018-09-11T10:12:24.449Z,28.60
2018-09-11T10:14:54.321Z,28.60
2018-09-11T10:17:23.927Z,28.50
2018-09-11T10:19:53.275Z,28.60
2018-09-11T10:22:27.179Z,28.60
2018-09-11T10:24:59.956Z,28.60
2018-09-11T10:27:29.885Z,28.60
2018-09-11T10:29:59.903Z,28.60
2018-09-11T10:32:29.800Z,28.60
2018-09-11T10:35:00.958Z,28.70
2018-09-11T10:37:32.277Z,28.70
2018-09-11T10:40:03.097Z,28.70
2018-09-11T10:42:33.191Z,28.70
2018-09-11T10:45:02.589Z,28.70
2018-09-11T10:47:35.038Z,28.70
2018-09-11T10:50:05.653Z,28.60
2018-09-11T10:52:38.418Z,28.60
2018-09-11T10:55:08.156Z,28.50
2018-09-11T10:57:37.744Z,28.40
2018-09-11T11:00:08.108Z,28.50
2018-09-11T11:02:39.853Z,28.50
2018-09-11T11:05:12.495Z,28.60
2018-09-11T11:07:42.168Z,28.70
2018-09-11T11:10:14.664Z,28.90
2018-09-11T11:12:44.052Z,29.10
2018-09-11T11:15:13.852Z,29.20
2018-09-11T11:17:43.837Z,29.30
2018-09-11T11:20:13.292Z,29.50
2018-09-11T11:22:42.783Z,29.50
2018-09-11T11:25:13.260Z,29.60
2018-09-11T11:27:43.451Z,29.70
2018-09-11T11:30:16.992Z,29.70
2018-09-11T11:32:48.308Z,29.80
2018-09-11T11:35:20.814Z,29.90
2018-09-11T11:37:51.674Z,29.90
2018-09-11T11:40:21.761Z,30.00
2018-09-11T11:42:55.371Z,30.00
2018-09-11T11:45:24.805Z,30.00
2018-09-11T11:47:56.270Z,30.10
2018-09-11T11:50:28.835Z,30.00
2018-09-11T11:53:00.427Z,29.90
2018-09-11T11:55:31.067Z,29.90
2018-09-11T11:58:01.145Z,29.80
2018-09-11T12:00:31.203Z,29.80
2018-09-11T12:03:00.657Z,29.80
2018-09-11T12:05:34.585Z,29.80
2018-09-11T12:08:05.731Z,29.80
2018-09-11T12:10:35.872Z,29.80
2018-09-11T12:13:06.854Z,29.70
2018-09-11T12:15:36.917Z,29.80
2018-09-11T12:18:06.835Z,29.80
2018-09-11T12:20:36.989Z,29.80
2018-09-11T12:23:06.880Z,29.70
2018-09-11T12:25:36.301Z,29.70
2018-09-11T12:28:06.629Z,29.60
2018-09-11T12:30:36.566Z,29.50
2018-09-11T12:33:06.175Z,29.40
2018-09-11T12:35:36.747Z,29.40
2018-09-11T12:38:08.750Z,29.40
2018-09-11T12:40:38.220Z,29.40
2018-09-11T12:43:08.541Z,29.40
2018-09-11T12:45:38.440Z,29.40
2018-09-11T12:48:08.822Z,29.50
2018-09-11T12:50:38.138Z,29.40
2018-09-11T12:53:07.727Z,29.40
2018-09-11T12:55:36.984Z,29.40
2018-09-11T12:58:07.639Z,29.40
2018-09-11T13:00:40.068Z,29.40
2018-09-11T13:03:09.748Z,29.40
2018-09-11T13:05:42.872Z,29.40
2018-09-11T13:08:12.456Z,29.50
2018-09-11T13:10:44.854Z,29.50
2018-09-11T13:13:13.992Z,29.60
2018-09-11T13:15:43.821Z,29.60
2018-09-11T13:18:13.561Z,29.60
2018-09-11T13:20:45.859Z,29.60
2018-09-11T13:23:16.273Z,29.60
2018-09-11T13:25:47.049Z,29.50
2018-09-11T13:28:17.883Z,29.50
2018-09-11T13:30:48.672Z,29.40
2018-09-11T13:33:18.935Z,29.30
2018-09-11T13:35:48.384Z,29.20
2018-09-11T13:38:18.932Z,29.20
2018-09-11T13:40:49.053Z,29.20
2018-09-11T13:43:18.708Z,29.20
2018-09-11T13:45:49.246Z,29.20
2018-09-11T13:48:20.063Z,29.20
2018-09-11T13:50:49.586Z,29.20
2018-09-11T13:53:18.715Z,29.20
2018-09-11T13:55:47.844Z,29.10
2018-09-11T13:58:17.053Z,29.10
2018-09-11T14:00:46.406Z,29.00
2018-09-11T14:03:15.792Z,29.00
2018-09-11T14:05:45.001Z,29.00
2018-09-11T14:08:14.398Z,29.00
2018-09-11T14:10:43.959Z,29.10
2018-09-11T14:13:13.523Z,29.00
2018-09-11T14:15:42.966Z,29.10
2018-09-11T14:18:12.132Z,29.10
2018-09-11T14:20:41.305Z,29.10
2018-09-11T14:23:10.512Z,29.10
2018-09-11T14:25:39.953Z,29.10
2018-09-11T14:28:09.269Z,29.10
2018-09-11T14:30:38.373Z,29.10
2018-09-11T14:33:07.493Z,29.10
2018-09-11T14:35:36.716Z,29.20
2018-09-11T14:38:06.303Z,29.10
2018-09-11T14:40:35.762Z,29.10
2018-09-11T14:43:05.061Z,29.10
2018-09-11T14:45:34.230Z,29.10
2018-09-11T14:48:03.403Z,29.10
2018-09-11T14:50:32.826Z,29.10
2018-09-11T14:53:02.164Z,29.00
2018-09-11T14:55:31.337Z,29.10
2018-09-11T14:58:00.662Z,29.10
2018-09-11T15:00:29.939Z,29.00
2018-09-11T15:02:59.186Z,29.00
2018-09-11T15:05:28.371Z,29.00
2018-09-11T15:07:57.603Z,29.00
2018-09-11T15:10:26.729Z,28.90
2018-09-11T15:12:55.877Z,28.90
2018-09-11T15:15:25.026Z,28.80
2018-09-11T15:17:54.222Z,28.80
2018-09-11T15:20:23.418Z,28.70
2018-09-11T15:22:52.658Z,28.70
2018-09-11T15:25:21.787Z,28.70
2018-09-11T15:27:51.008Z,28.70
2018-09-11T15:30:20.121Z,28.70
2018-09-11T15:32:49.313Z,28.70
2018-09-11T15:35:18.532Z,28.60
2018-09-11T15:37:47.856Z,28.60
2018-09-11T15:40:17.120Z,28.60
2018-09-11T15:42:47.561Z,28.60
2018-09-11T15:45:17.082Z,28.60
2018-09-11T15:47:47.409Z,28.60
2018-09-11T15:50:17.209Z,28.60
2018-09-11T15:52:47.697Z,28.60
2018-09-11T15:55:19.240Z,28.60
2018-09-11T15:57:50.392Z,28.60
2018-09-11T16:00:22.181Z,28.60
2018-09-11T16:02:51.769Z,28.60
2018-09-11T16:05:23.699Z,28.60
2018-09-11T16:07:56.806Z,28.60
2018-09-11T16:10:26.389Z,28.60
2018-09-11T16:12:55.997Z,28.60
2018-09-11T16:15:25.628Z,28.60
2018-09-11T16:17:55.145Z,28.60
2018-09-11T16:20:24.684Z,28.60
2018-09-11T16:22:54.106Z,28.60
2018-09-11T16:25:23.590Z,28.60
2018-09-11T16:27:56.037Z,28.50
2018-09-11T16:30:25.412Z,28.60
2018-09-11T16:32:55.122Z,28.50
2018-09-11T16:35:26.858Z,28.50
2018-09-11T16:37:57.202Z,28.50
2018-09-11T16:40:26.723Z,28.50
2018-09-11T16:42:56.709Z,28.50
2018-09-11T16:45:26.589Z,28.40
2018-09-11T16:47:58.182Z,28.40
2018-09-11T16:50:30.242Z,28.40
2018-09-11T16:52:59.552Z,28.40
2018-09-11T16:55:29.051Z,28.40
2018-09-11T16:57:58.940Z,28.30
2018-09-11T17:00:28.553Z,28.20
2018-09-11T17:03:00.095Z,28.20
2018-09-11T17:05:29.678Z,28.20
2018-09-11T17:08:02.792Z,28.10
2018-09-11T17:10:32.784Z,28.10
2018-09-11T17:13:02.709Z,28.00
2018-09-11T17:15:32.532Z,27.90
2018-09-11T17:18:01.861Z,27.90
2018-09-11T17:20:31.515Z,27.80
2018-09-11T17:23:01.371Z,27.70
2018-09-11T17:25:32.989Z,27.70
2018-09-11T17:28:04.439Z,27.60
2018-09-11T17:30:34.409Z,27.50
2018-09-11T17:33:04.605Z,27.50
2018-09-11T17:35:35.402Z,27.40
2018-09-11T17:38:04.638Z,27.30
2018-09-11T17:40:34.335Z,27.30
2018-09-11T17:43:07.266Z,27.20
2018-09-11T17:45:38.711Z,27.10
2018-09-11T17:48:08.280Z,27.00
2018-09-11T17:50:40.627Z,27.00
2018-09-11T17:53:09.949Z,26.90
2018-09-11T17:55:41.194Z,26.80
2018-09-11T17:58:12.357Z,26.70
2018-09-11T18:00:46.153Z,26.70
2018-09-11T18:03:20.691Z,26.60
2018-09-11T18:05:52.488Z,26.50
2018-09-11T18:08:23.155Z,26.40
2018-09-11T18:10:53.624Z,26.30
2018-09-11T18:13:24.815Z,26.30
2018-09-11T18:15:54.794Z,26.20
2018-09-11T18:18:25.319Z,26.10
2018-09-11T18:20:55.884Z,26.00
2018-09-11T18:23:28.250Z,25.90
2018-09-11T18:25:58.708Z,25.80
2018-09-11T18:28:32.995Z,25.80
2018-09-11T18:31:02.996Z,25.70
2018-09-11T18:33:33.732Z,25.60
2018-09-11T18:36:04.229Z,25.50
2018-09-11T18:38:35.987Z,25.30
2018-09-11T18:41:07.799Z,25.20
2018-09-11T18:43:38.151Z,25.20
2018-09-11T18:46:14.355Z,25.10
2018-09-11T18:48:45.392Z,25.00
2018-09-11T18:51:15.133Z,25.00
2018-09-11T18:53:47.362Z,24.90
2018-09-11T18:56:20.875Z,24.80
2018-09-11T18:58:51.904Z,24.70
2018-09-11T19:01:23.336Z,24.70
2018-09-11T19:03:53.602Z,24.60
2018-09-11T19:06:24.655Z,24.50
2018-09-11T19:08:54.936Z,24.50
2018-09-11T19:11:26.302Z,24.40
2018-09-11T19:13:56.660Z,24.30
2018-09-11T19:16:30.289Z,24.20
2018-09-11T19:19:03.309Z,24.20
2018-09-11T19:21:37.593Z,24.10
2018-09-11T19:24:07.885Z,24.00
2018-09-11T19:26:41.411Z,23.90
2018-09-11T19:29:10.933Z,23.80
2018-09-11T19:31:42.673Z,23.80
2018-09-11T19:34:15.513Z,23.70
2018-09-11T19:36:45.865Z,23.60
2018-09-11T19:39:17.481Z,23.50
2018-09-11T19:41:47.069Z,23.40
2018-09-11T19:44:18.115Z,23.40
2018-09-11T19:46:50.428Z,23.30
2018-09-11T19:49:22.194Z,23.20
2018-09-11T19:51:53.876Z,23.10
2018-09-11T19:54:29.958Z,23.10
2018-09-11T19:57:03.100Z,23.00
2018-09-11T19:59:37.604Z,22.90
2018-09-11T20:02:11.713Z,22.90
2018-09-11T20:04:42.128Z,22.80
2018-09-11T20:07:13.432Z,22.70
2018-09-11T20:09:45.695Z,22.70
2018-09-11T20:12:16.216Z,22.70
2018-09-11T20:14:45.464Z,22.60
2018-09-11T20:17:14.906Z,22.50
2018-09-11T20:19:44.143Z,22.50
2018-09-11T20:22:14.711Z,22.40
2018-09-11T20:24:43.834Z,22.40
2018-09-11T20:27:12.922Z,22.30
2018-09-11T20:29:42.441Z,22.20
2018-09-11T20:32:11.710Z,22.20
2018-09-11T20:34:40.935Z,22.10
2018-09-11T20:39:53.993Z,22.10
2018-09-11T20:42:23.353Z,22.10
2018-09-11T20:44:52.742Z,22.10
2018-09-11T20:47:21.952Z,22.00
2018-09-11T20:49:51.115Z,22.00
2018-09-11T20:52:20.164Z,22.10
2018-09-11T20:54:49.309Z,22.10
2018-09-11T20:57:18.473Z,22.10
2018-09-11T20:59:47.634Z,22.10
2018-09-11T21:05:16.885Z,22.00
2018-09-11T21:07:46.281Z,22.00
2018-09-11T21:10:15.521Z,22.00
2018-09-11T21:12:45.441Z,21.90
2018-09-11T21:15:14.574Z,21.90
2018-09-11T21:17:43.680Z,21.90
2018-09-11T21:20:13.018Z,21.80
2018-09-11T21:22:42.412Z,21.80
2018-09-11T21:25:11.822Z,21.80
2018-09-11T21:27:41.039Z,21.80
2018-09-11T21:30:10.273Z,21.80
2018-09-11T21:32:39.402Z,21.80
2018-09-11T21:35:08.641Z,21.70
2018-09-11T21:37:37.780Z,21.70
2018-09-11T21:40:06.916Z,21.70
2018-09-11T21:42:35.977Z,21.70
2018-09-11T21:45:05.232Z,21.60
2018-09-11T21:47:34.361Z,21.60
2018-09-11T21:50:03.540Z,21.60
2018-09-11T21:52:33.724Z,21.60
2018-09-11T21:55:02.756Z,21.50
2018-09-11T21:57:31.832Z,21.50
2018-09-11T22:00:00.975Z,21.50
2018-09-11T22:02:30.107Z,21.40
2018-09-11T22:04:59.153Z,21.40
2018-09-11T22:07:28.328Z,21.40
2018-09-11T22:09:57.360Z,21.40
2018-09-11T22:12:26.625Z,21.30
2018-09-11T22:14:55.760Z,21.30
2018-09-11T22:17:24.925Z,21.30
2018-09-11T22:19:54.131Z,21.30
2018-09-11T22:22:23.437Z,21.30
2018-09-11T22:24:52.616Z,21.20
2018-09-11T22:27:21.728Z,21.20
2018-09-11T22:29:50.899Z,21.20
2018-09-11T22:32:19.960Z,21.20
2018-09-11T22:34:49.182Z,21.20
2018-09-11T22:37:18.289Z,21.20
2018-09-11T22:39:47.426Z,21.20
2018-09-11T22:42:16.744Z,21.10
2018-09-11T22:44:46.324Z,21.10
2018-09-11T22:47:15.603Z,21.10
2018-09-11T22:49:44.806Z,21.00
2018-09-11T22:52:13.977Z,21.00
2018-09-11T22:54:43.124Z,21.00
2018-09-11T22:57:12.385Z,20.90
2018-09-11T22:59:42.240Z,20.90
2018-09-11T23:02:11.829Z,20.90
2018-09-11T23:04:41.466Z,20.80
2018-09-11T23:07:10.714Z,20.80
2018-09-11T23:09:39.808Z,20.80
2018-09-11T23:12:08.951Z,20.70
2018-09-11T23:14:38.121Z,20.70
2018-09-11T23:17:07.264Z,20.70
2018-09-11T23:19:36.469Z,20.60
2018-09-11T23:22:05.770Z,20.60
2018-09-11T23:24:34.834Z,20.60
2018-09-11T23:27:03.928Z,20.60
2018-09-11T23:29:32.996Z,20.60
2018-09-11T23:32:02.091Z,20.50
2018-09-11T23:34:31.298Z,20.50
2018-09-11T23:37:00.532Z,20.40
2018-09-11T23:39:29.890Z,20.30
2018-09-11T23:41:58.959Z,20.30
2018-09-11T23:44:28.017Z,20.30
2018-09-11T23:46:57.153Z,20.30
2018-09-11T23:49:26.211Z,20.20
2018-09-11T23:51:56.320Z,20.20
2018-09-11T23:54:26.397Z,20.10
2018-09-11T23:56:55.512Z,20.10
2018-09-11T23:59:24.596Z,20.10
